Current Weather

Murmansk

Murmansk, Russia (ULMM)

Report from: Sunday, July 14, 2024 5:00 AM MSK
Current time: Sunday, July 14, 2024 5:26 AM MSK

Nearby weather – Weather history – Daily summaries
Weather forecast

Temperature7.0°C (44.6°F)
Dew point7.0°C (44.6°F)
Winds 1.9 kts (1 m/s, 2.2 mph) Southeast (130°)
Clouds Sky clear
Altimeter30.12 in.Hg (1020 mB)
Precip. events QF 4:38 PM
Relative humidity100 %
Density altitude-1,048 ft. (-319 m)
Remarks Ceiling and visibility OK
No significant changes expected in the next two hours
Flight conditions Visual Meteorological Conditions
Raw dataULMM 140200Z 13001MPS CAVOK 07/07 Q1020 R13/090070 NOSIG RMK QFE758
An error has occurred. This application may no longer respond until reloaded. Reload 🗙